sensor_id;sensor_type;location;lat;lon;timestamp;pressure;altitude;pressure_sealevel;temperature;humidity
65384;BME280;51986;52.788;41.368;2023-08-24T00:00:22;98696.47;;;14.13;73.08
65384;BME280;51986;52.788;41.368;2023-08-24T00:02:49;98742.47;;;14.20;73.72
65384;BME280;51986;52.788;41.368;2023-08-24T00:05:16;98688.63;;;13.97;73.40
65384;BME280;51986;52.788;41.368;2023-08-24T00:07:43;98721.47;;;14.12;72.84
65384;BME280;51986;52.788;41.368;2023-08-24T00:10:10;98700.94;;;13.91;72.98
65384;BME280;51986;52.788;41.368;2023-08-24T00:12:37;98711.19;;;14.02;73.12
65384;BME280;51986;52.788;41.368;2023-08-24T00:15:07;98712.00;;;14.11;72.70
65384;BME280;51986;52.788;41.368;2023-08-24T00:17:34;98711.09;;;14.05;73.05
65384;BME280;51986;52.788;41.368;2023-08-24T00:20:02;98706.88;;;13.95;73.09
65384;BME280;51986;52.788;41.368;2023-08-24T00:22:29;98706.34;;;13.87;73.01
65384;BME280;51986;52.788;41.368;2023-08-24T00:24:55;98710.59;;;13.85;73.06
65384;BME280;51986;52.788;41.368;2023-08-24T00:27:22;98721.03;;;13.67;73.22
65384;BME280;51986;52.788;41.368;2023-08-24T00:29:49;98732.88;;;13.75;73.35
65384;BME280;51986;52.788;41.368;2023-08-24T00:32:16;98699.28;;;13.72;73.14
65384;BME280;51986;52.788;41.368;2023-08-24T00:34:43;98716.78;;;13.44;73.39
65384;BME280;51986;52.788;41.368;2023-08-24T00:37:11;98722.72;;;13.60;73.59
65384;BME280;51986;52.788;41.368;2023-08-24T00:39:39;98729.31;;;13.56;73.43
65384;BME280;51986;52.788;41.368;2023-08-24T00:42:06;98733.22;;;13.51;74.10
65384;BME280;51986;52.788;41.368;2023-08-24T00:44:33;98746.56;;;13.60;73.60
65384;BME280;51986;52.788;41.368;2023-08-24T00:47:00;98713.50;;;13.39;73.44
65384;BME280;51986;52.788;41.368;2023-08-24T00:49:28;98728.56;;;13.55;73.53
65384;BME280;51986;52.788;41.368;2023-08-24T00:51:55;98731.41;;;13.48;73.64
65384;BME280;51986;52.788;41.368;2023-08-24T00:54:22;98730.47;;;13.42;73.35
65384;BME280;51986;52.788;41.368;2023-08-24T00:56:50;98721.03;;;13.41;73.64
65384;BME280;51986;52.788;41.368;2023-08-24T00:59:17;98726.66;;;13.43;73.57
65384;BME280;51986;52.788;41.368;2023-08-24T01:01:46;98717.22;;;13.42;74.25
65384;BME280;51986;52.788;41.368;2023-08-24T01:04:13;98718.06;;;13.52;73.25
65384;BME280;51986;52.788;41.368;2023-08-24T01:06:40;98723.38;;;13.52;73.48
65384;BME280;51986;52.788;41.368;2023-08-24T01:09:07;98723.91;;;13.59;73.10
65384;BME280;51986;52.788;41.368;2023-08-24T01:11:39;98715.94;;;13.59;72.90
65384;BME280;51986;52.788;41.368;2023-08-24T01:15:03;98753.75;;;13.73;72.80
65384;BME280;51986;52.788;41.368;2023-08-24T01:17:32;98739.81;;;13.59;72.30
65384;BME280;51986;52.788;41.368;2023-08-24T01:20:03;98726.44;;;13.50;72.67
65384;BME280;51986;52.788;41.368;2023-08-24T01:25:37;98754.09;;;13.49;72.85
65384;BME280;51986;52.788;41.368;2023-08-24T01:28:05;98752.63;;;13.61;72.71
65384;BME280;51986;52.788;41.368;2023-08-24T01:30:34;98745.28;;;13.52;72.62
65384;BME280;51986;52.788;41.368;2023-08-24T01:33:04;98725.91;;;13.55;72.58
65384;BME280;51986;52.788;41.368;2023-08-24T01:35:31;98739.34;;;13.48;72.86
65384;BME280;51986;52.788;41.368;2023-08-24T01:37:59;98733.31;;;13.35;73.24
65384;BME280;51986;52.788;41.368;2023-08-24T01:40:36;98738.41;;;13.55;72.60
65384;BME280;51986;52.788;41.368;2023-08-24T01:43:07;98732.88;;;13.49;72.76
65384;BME280;51986;52.788;41.368;2023-08-24T01:45:37;98750.81;;;13.58;72.25
65384;BME280;51986;52.788;41.368;2023-08-24T01:48:05;98757.91;;;13.61;72.29
65384;BME280;51986;52.788;41.368;2023-08-24T01:50:33;98759.41;;;13.62;72.08
65384;BME280;51986;52.788;41.368;2023-08-24T01:53:02;98736.63;;;13.64;71.76
65384;BME280;51986;52.788;41.368;2023-08-24T01:55:29;98764.19;;;13.54;72.14
65384;BME280;51986;52.788;41.368;2023-08-24T01:57:57;98739.16;;;13.55;72.01
65384;BME280;51986;52.788;41.368;2023-08-24T02:00:24;98746.13;;;13.49;72.56
65384;BME280;51986;52.788;41.368;2023-08-24T02:02:51;98745.94;;;13.56;71.91
65384;BME280;51986;52.788;41.368;2023-08-24T02:05:18;98737.44;;;13.49;72.08
65384;BME280;51986;52.788;41.368;2023-08-24T02:07:50;98771.78;;;13.52;72.68
65384;BME280;51986;52.788;41.368;2023-08-24T02:10:18;98742.63;;;13.39;72.42
65384;BME280;51986;52.788;41.368;2023-08-24T02:12:45;98753.88;;;13.44;72.45
65384;BME280;51986;52.788;41.368;2023-08-24T02:15:12;98752.50;;;13.39;72.63
65384;BME280;51986;52.788;41.368;2023-08-24T02:17:39;98734.38;;;13.37;72.70
65384;BME280;51986;52.788;41.368;2023-08-24T02:20:06;98750.19;;;13.41;72.64
65384;BME280;51986;52.788;41.368;2023-08-24T02:22:34;98762.34;;;13.38;72.91
65384;BME280;51986;52.788;41.368;2023-08-24T02:25:01;98740.94;;;13.33;72.97
65384;BME280;51986;52.788;41.368;2023-08-24T02:27:28;98750.28;;;13.37;73.07
65384;BME280;51986;52.788;41.368;2023-08-24T02:29:56;98734.69;;;13.39;73.12
65384;BME280;51986;52.788;41.368;2023-08-24T02:32:23;98759.31;;;13.40;72.75
65384;BME280;51986;52.788;41.368;2023-08-24T02:34:51;98757.59;;;13.33;72.72
65384;BME280;51986;52.788;41.368;2023-08-24T02:37:18;98776.78;;;13.50;72.66
65384;BME280;51986;52.788;41.368;2023-08-24T02:39:45;98752.19;;;13.50;72.08
65384;BME280;51986;52.788;41.368;2023-08-24T02:42:11;98776.47;;;13.61;72.48
65384;BME280;51986;52.788;41.368;2023-08-24T02:44:39;98779.44;;;13.76;71.81
65384;BME280;51986;52.788;41.368;2023-08-24T02:47:06;98756.84;;;13.71;71.81
65384;BME280;51986;52.788;41.368;2023-08-24T02:49:33;98759.06;;;13.73;71.60
65384;BME280;51986;52.788;41.368;2023-08-24T02:52:02;98775.41;;;13.84;71.51
65384;BME280;51986;52.788;41.368;2023-08-24T02:54:29;98768.28;;;13.94;70.90
65384;BME280;51986;52.788;41.368;2023-08-24T02:56:56;98754.94;;;13.84;71.05
65384;BME280;51986;52.788;41.368;2023-08-24T02:59:23;98741.78;;;14.41;69.88
65384;BME280;51986;52.788;41.368;2023-08-24T03:01:50;98758.88;;;15.06;67.45
65384;BME280;51986;52.788;41.368;2023-08-24T03:04:17;98773.19;;;15.61;65.66
65384;BME280;51986;52.788;41.368;2023-08-24T03:06:44;98710.03;;;15.93;63.65
65384;BME280;51986;52.788;41.368;2023-08-24T03:09:11;98774.84;;;16.36;62.29
65384;BME280;51986;52.788;41.368;2023-08-24T03:11:39;98779.59;;;16.68;61.63
65384;BME280;51986;52.788;41.368;2023-08-24T03:14:06;98795.22;;;16.94;60.39
65384;BME280;51986;52.788;41.368;2023-08-24T03:16:34;98777.28;;;17.31;59.37
65384;BME280;51986;52.788;41.368;2023-08-24T03:19:03;98770.66;;;17.84;57.29
65384;BME280;51986;52.788;41.368;2023-08-24T03:21:31;98779.34;;;17.93;57.02
65384;BME280;51986;52.788;41.368;2023-08-24T03:23:58;98750.53;;;18.31;55.68
65384;BME280;51986;52.788;41.368;2023-08-24T03:26:25;98783.75;;;18.30;56.09
65384;BME280;51986;52.788;41.368;2023-08-24T03:28:53;98785.69;;;18.05;56.37
65384;BME280;51986;52.788;41.368;2023-08-24T03:31:20;98781.09;;;18.06;56.68
65384;BME280;51986;52.788;41.368;2023-08-24T03:33:47;98775.25;;;17.59;57.44
65384;BME280;51986;52.788;41.368;2023-08-24T03:36:14;98783.28;;;17.50;58.79
65384;BME280;51986;52.788;41.368;2023-08-24T03:38:44;98777.78;;;17.54;58.52
65384;BME280;51986;52.788;41.368;2023-08-24T03:41:11;98813.56;;;17.29;59.37
65384;BME280;51986;52.788;41.368;2023-08-24T03:43:38;98778.31;;;17.34;59.46
65384;BME280;51986;52.788;41.368;2023-08-24T03:46:05;98782.88;;;17.42;58.92
65384;BME280;51986;52.788;41.368;2023-08-24T03:48:32;98776.75;;;17.51;59.27
65384;BME280;51986;52.788;41.368;2023-08-24T03:50:59;98778.91;;;17.38;59.16
65384;BME280;51986;52.788;41.368;2023-08-24T03:53:27;98777.56;;;17.33;59.64
65384;BME280;51986;52.788;41.368;2023-08-24T03:55:54;98770.69;;;17.51;59.13
65384;BME280;51986;52.788;41.368;2023-08-24T03:58:21;98790.38;;;17.86;58.22
65384;BME280;51986;52.788;41.368;2023-08-24T04:00:48;98790.03;;;17.93;57.86
65384;BME280;51986;52.788;41.368;2023-08-24T04:03:15;98784.22;;;17.71;58.81
65384;BME280;51986;52.788;41.368;2023-08-24T04:05:43;98799.41;;;17.56;59.34
65384;BME280;51986;52.788;41.368;2023-08-24T04:08:09;98765.47;;;17.56;59.39
65384;BME280;51986;52.788;41.368;2023-08-24T04:10:37;98804.63;;;17.41;60.45
65384;BME280;51986;52.788;41.368;2023-08-24T04:13:04;98780.19;;;16.73;62.10
65384;BME280;51986;52.788;41.368;2023-08-24T04:15:31;98800.59;;;16.66;62.31
65384;BME280;51986;52.788;41.368;2023-08-24T04:17:58;98810.50;;;16.75;62.99
65384;BME280;51986;52.788;41.368;2023-08-24T04:20:25;98794.38;;;16.42;63.50
65384;BME280;51986;52.788;41.368;2023-08-24T04:22:52;98791.41;;;16.58;63.77
65384;BME280;51986;52.788;41.368;2023-08-24T04:25:19;98773.97;;;16.57;62.99
65384;BME280;51986;52.788;41.368;2023-08-24T04:27:46;98796.59;;;16.62;63.09
65384;BME280;51986;52.788;41.368;2023-08-24T04:30:14;98804.28;;;16.60;63.56
65384;BME280;51986;52.788;41.368;2023-08-24T04:32:41;98800.00;;;16.62;63.19
65384;BME280;51986;52.788;41.368;2023-08-24T04:35:08;98773.66;;;16.46;63.80
65384;BME280;51986;52.788;41.368;2023-08-24T04:37:35;98806.81;;;16.54;63.46
65384;BME280;51986;52.788;41.368;2023-08-24T04:40:02;98839.78;;;16.48;64.60
65384;BME280;51986;52.788;41.368;2023-08-24T04:42:30;98792.59;;;16.30;64.64
65384;BME280;51986;52.788;41.368;2023-08-24T04:44:57;98811.25;;;16.48;64.87
65384;BME280;51986;52.788;41.368;2023-08-24T04:47:26;98792.59;;;16.48;65.21
65384;BME280;51986;52.788;41.368;2023-08-24T04:49:54;98801.34;;;16.76;64.05
65384;BME280;51986;52.788;41.368;2023-08-24T04:52:21;98808.13;;;16.86;63.60
65384;BME280;51986;52.788;41.368;2023-08-24T04:54:47;98813.31;;;16.81;63.67
65384;BME280;51986;52.788;41.368;2023-08-24T04:57:14;98788.91;;;16.73;64.23
65384;BME280;51986;52.788;41.368;2023-08-24T04:59:41;98782.84;;;16.73;64.43
65384;BME280;51986;52.788;41.368;2023-08-24T05:02:09;98806.50;;;16.89;64.38
65384;BME280;51986;52.788;41.368;2023-08-24T05:04:36;98806.06;;;16.90;64.20
65384;BME280;51986;52.788;41.368;2023-08-24T05:07:03;98800.00;;;16.72;64.93
65384;BME280;51986;52.788;41.368;2023-08-24T05:09:30;98819.25;;;16.76;64.16
65384;BME280;51986;52.788;41.368;2023-08-24T05:11:57;98802.66;;;16.81;64.62
65384;BME280;51986;52.788;41.368;2023-08-24T05:14:24;98808.72;;;17.00;64.33
65384;BME280;51986;52.788;41.368;2023-08-24T05:16:51;98803.41;;;17.51;62.40
65384;BME280;51986;52.788;41.368;2023-08-24T05:19:18;98806.63;;;17.64;62.25
65384;BME280;51986;52.788;41.368;2023-08-24T05:21:45;98823.31;;;17.74;62.34
65384;BME280;51986;52.788;41.368;2023-08-24T05:24:12;98817.53;;;17.76;62.03
65384;BME280;51986;52.788;41.368;2023-08-24T05:26:39;98824.25;;;17.95;61.91
65384;BME280;51986;52.788;41.368;2023-08-24T05:29:06;98812.13;;;17.94;61.56
65384;BME280;51986;52.788;41.368;2023-08-24T05:31:32;98826.06;;;17.89;61.63
65384;BME280;51986;52.788;41.368;2023-08-24T05:33:59;98833.47;;;17.94;61.44
65384;BME280;51986;52.788;41.368;2023-08-24T05:36:26;98817.25;;;18.07;61.34
65384;BME280;51986;52.788;41.368;2023-08-24T05:38:53;98802.06;;;17.89;62.11
65384;BME280;51986;52.788;41.368;2023-08-24T05:41:31;98812.88;;;18.18;60.35
65384;BME280;51986;52.788;41.368;2023-08-24T05:43:58;98806.81;;;18.42;60.09
65384;BME280;51986;52.788;41.368;2023-08-24T05:46:25;98801.75;;;18.83;59.19
65384;BME280;51986;52.788;41.368;2023-08-24T05:48:52;98801.25;;;18.69;58.52
65384;BME280;51986;52.788;41.368;2023-08-24T05:51:19;98798.41;;;18.73;58.41
65384;BME280;51986;52.788;41.368;2023-08-24T05:53:46;98803.22;;;18.84;58.11
65384;BME280;51986;52.788;41.368;2023-08-24T05:56:13;98797.78;;;19.37;56.25
65384;BME280;51986;52.788;41.368;2023-08-24T05:58:40;98803.59;;;19.36;56.74
65384;BME280;51986;52.788;41.368;2023-08-24T06:01:07;98797.88;;;19.28;57.34
65384;BME280;51986;52.788;41.368;2023-08-24T06:03:34;98811.72;;;19.41;57.35
65384;BME280;51986;52.788;41.368;2023-08-24T06:06:03;98826.72;;;19.68;56.09
65384;BME280;51986;52.788;41.368;2023-08-24T06:08:30;98805.25;;;19.48;56.68
65384;BME280;51986;52.788;41.368;2023-08-24T06:10:58;98809.09;;;19.62;56.46
65384;BME280;51986;52.788;41.368;2023-08-24T06:13:25;98791.13;;;19.97;56.01
65384;BME280;51986;52.788;41.368;2023-08-24T06:15:52;98806.94;;;20.36;55.27
65384;BME280;51986;52.788;41.368;2023-08-24T06:18:20;98799.88;;;20.39;54.23
65384;BME280;51986;52.788;41.368;2023-08-24T06:20:47;98797.59;;;20.72;53.41
65384;BME280;51986;52.788;41.368;2023-08-24T06:23:17;98809.59;;;20.57;53.60
65384;BME280;51986;52.788;41.368;2023-08-24T06:25:45;98811.56;;;20.82;53.02
65384;BME280;51986;52.788;41.368;2023-08-24T06:28:13;98759.16;;;20.55;53.26
65384;BME280;51986;52.788;41.368;2023-08-24T06:30:41;98778.78;;;20.93;52.88
65384;BME280;51986;52.788;41.368;2023-08-24T06:33:08;98816.06;;;21.22;51.78
65384;BME280;51986;52.788;41.368;2023-08-24T06:35:36;98799.00;;;20.94;52.90
65384;BME280;51986;52.788;41.368;2023-08-24T06:38:03;98811.66;;;21.19;52.36
65384;BME280;51986;52.788;41.368;2023-08-24T06:40:31;98819.97;;;21.21;52.22
65384;BME280;51986;52.788;41.368;2023-08-24T06:42:58;98801.41;;;21.18;52.03
65384;BME280;51986;52.788;41.368;2023-08-24T06:45:25;98810.59;;;21.11;51.73
65384;BME280;51986;52.788;41.368;2023-08-24T06:47:51;98807.75;;;21.20;51.30
65384;BME280;51986;52.788;41.368;2023-08-24T06:50:19;98814.41;;;21.57;50.60
65384;BME280;51986;52.788;41.368;2023-08-24T06:52:47;98812.97;;;21.61;50.27
65384;BME280;51986;52.788;41.368;2023-08-24T06:55:14;98806.66;;;21.64;51.51
65384;BME280;51986;52.788;41.368;2023-08-24T06:57:41;98827.56;;;21.97;50.56
65384;BME280;51986;52.788;41.368;2023-08-24T07:00:08;98815.44;;;21.65;49.47
65384;BME280;51986;52.788;41.368;2023-08-24T07:02:36;98813.13;;;21.84;49.16
65384;BME280;51986;52.788;41.368;2023-08-24T07:05:04;98791.53;;;22.15;48.86
65384;BME280;51986;52.788;41.368;2023-08-24T07:07:31;98796.28;;;21.89;49.03
65384;BME280;51986;52.788;41.368;2023-08-24T07:09:58;98808.50;;;21.90;49.12
65384;BME280;51986;52.788;41.368;2023-08-24T07:12:25;98800.78;;;21.60;49.05
65384;BME280;51986;52.788;41.368;2023-08-24T07:14:52;98819.25;;;21.95;48.38
65384;BME280;51986;52.788;41.368;2023-08-24T07:17:19;98826.81;;;21.91;47.63
65384;BME280;51986;52.788;41.368;2023-08-24T07:19:46;98803.31;;;22.29;47.40
65384;BME280;51986;52.788;41.368;2023-08-24T07:22:13;98832.31;;;22.14;48.36
65384;BME280;51986;52.788;41.368;2023-08-24T07:24:40;98806.44;;;22.16;47.50
65384;BME280;51986;52.788;41.368;2023-08-24T07:27:12;98808.66;;;22.18;47.16
65384;BME280;51986;52.788;41.368;2023-08-24T07:29:39;98832.50;;;22.64;46.78
65384;BME280;51986;52.788;41.368;2023-08-24T07:32:06;98799.41;;;22.24;47.29
65384;BME280;51986;52.788;41.368;2023-08-24T07:34:33;98815.19;;;22.11;46.46
65384;BME280;51986;52.788;41.368;2023-08-24T07:37:00;98795.63;;;22.65;45.63
65384;BME280;51986;52.788;41.368;2023-08-24T07:39:27;98805.22;;;22.94;44.87
65384;BME280;51986;52.788;41.368;2023-08-24T07:41:54;98827.88;;;22.70;44.92
65384;BME280;51986;52.788;41.368;2023-08-24T07:44:22;98789.81;;;22.89;44.72
65384;BME280;51986;52.788;41.368;2023-08-24T07:46:49;98793.94;;;23.12;44.88
65384;BME280;51986;52.788;41.368;2023-08-24T07:49:16;98830.31;;;22.68;44.89
65384;BME280;51986;52.788;41.368;2023-08-24T07:51:43;98803.72;;;23.26;43.83
65384;BME280;51986;52.788;41.368;2023-08-24T07:54:10;98810.34;;;23.31;42.75
65384;BME280;51986;52.788;41.368;2023-08-24T07:56:37;98800.03;;;23.80;41.95
65384;BME280;51986;52.788;41.368;2023-08-24T07:59:03;98805.38;;;22.73;43.52
65384;BME280;51986;52.788;41.368;2023-08-24T08:01:31;98781.47;;;23.43;42.00
65384;BME280;51986;52.788;41.368;2023-08-24T08:03:57;98819.88;;;23.43;41.96
65384;BME280;51986;52.788;41.368;2023-08-24T08:06:25;98795.91;;;22.89;43.41
65384;BME280;51986;52.788;41.368;2023-08-24T08:08:52;98822.56;;;23.21;42.52
65384;BME280;51986;52.788;41.368;2023-08-24T08:11:19;98786.38;;;23.11;42.32
65384;BME280;51986;52.788;41.368;2023-08-24T08:13:46;98788.28;;;23.55;42.07
65384;BME280;51986;52.788;41.368;2023-08-24T08:16:13;98802.22;;;23.76;41.18
65384;BME280;51986;52.788;41.368;2023-08-24T08:18:40;98806.19;;;23.47;41.46
65384;BME280;51986;52.788;41.368;2023-08-24T08:21:14;98776.31;;;23.45;41.81
65384;BME280;51986;52.788;41.368;2023-08-24T08:23:41;98813.78;;;23.37;42.53
65384;BME280;51986;52.788;41.368;2023-08-24T08:26:10;98804.25;;;23.19;42.09
65384;BME280;51986;52.788;41.368;2023-08-24T08:28:39;98794.88;;;23.76;40.17
65384;BME280;51986;52.788;41.368;2023-08-24T08:31:05;98802.25;;;23.48;40.82
65384;BME280;51986;52.788;41.368;2023-08-24T08:33:33;98817.09;;;23.94;39.92
65384;BME280;51986;52.788;41.368;2023-08-24T08:36:00;98805.41;;;23.74;39.78
65384;BME280;51986;52.788;41.368;2023-08-24T08:38:28;98799.63;;;24.17;38.86
65384;BME280;51986;52.788;41.368;2023-08-24T08:41:02;98808.34;;;24.46;39.24
65384;BME280;51986;52.788;41.368;2023-08-24T08:43:30;98794.28;;;24.12;38.96
65384;BME280;51986;52.788;41.368;2023-08-24T08:45:59;98794.47;;;24.25;39.24
65384;BME280;51986;52.788;41.368;2023-08-24T08:48:28;98789.75;;;24.37;38.48
65384;BME280;51986;52.788;41.368;2023-08-24T08:51:00;98789.53;;;24.34;38.77
65384;BME280;51986;52.788;41.368;2023-08-24T08:53:27;98764.59;;;24.64;38.44
65384;BME280;51986;52.788;41.368;2023-08-24T08:55:55;98802.69;;;24.49;39.30
65384;BME280;51986;52.788;41.368;2023-08-24T08:58:22;98785.06;;;23.90;39.69
65384;BME280;51986;52.788;41.368;2023-08-24T09:00:50;98791.81;;;24.08;39.45
65384;BME280;51986;52.788;41.368;2023-08-24T09:03:18;98784.78;;;23.99;40.25
65384;BME280;51986;52.788;41.368;2023-08-24T09:05:47;98788.78;;;23.65;41.14
65384;BME280;51986;52.788;41.368;2023-08-24T09:08:18;98797.84;;;24.37;39.22
65384;BME280;51986;52.788;41.368;2023-08-24T09:10:45;98762.84;;;24.31;39.03
65384;BME280;51986;52.788;41.368;2023-08-24T09:13:13;98802.09;;;24.15;39.70
65384;BME280;51986;52.788;41.368;2023-08-24T09:15:40;98796.34;;;23.77;39.95
65384;BME280;51986;52.788;41.368;2023-08-24T09:18:07;98779.00;;;23.56;40.57
65384;BME280;51986;52.788;41.368;2023-08-24T09:20:34;98799.06;;;23.49;39.77
65384;BME280;51986;52.788;41.368;2023-08-24T09:23:02;98799.47;;;24.04;39.76
65384;BME280;51986;52.788;41.368;2023-08-24T09:25:29;98795.84;;;23.90;38.84
65384;BME280;51986;52.788;41.368;2023-08-24T09:28:03;98818.31;;;23.98;39.05
65384;BME280;51986;52.788;41.368;2023-08-24T09:30:37;98799.16;;;24.13;38.77
65384;BME280;51986;52.788;41.368;2023-08-24T09:33:09;98808.00;;;24.08;39.59
65384;BME280;51986;52.788;41.368;2023-08-24T09:35:37;98816.16;;;23.91;39.11
65384;BME280;51986;52.788;41.368;2023-08-24T09:38:21;98797.59;;;23.65;40.38
65384;BME280;51986;52.788;41.368;2023-08-24T09:40:53;98795.91;;;23.51;40.21
65384;BME280;51986;52.788;41.368;2023-08-24T09:43:21;98799.56;;;23.70;39.77
65384;BME280;51986;52.788;41.368;2023-08-24T09:45:56;98770.03;;;24.12;39.49
65384;BME280;51986;52.788;41.368;2023-08-24T09:48:23;98809.34;;;23.45;39.95
65384;BME280;51986;52.788;41.368;2023-08-24T09:50:56;98791.25;;;23.51;40.01
65384;BME280;51986;52.788;41.368;2023-08-24T09:53:24;98786.97;;;24.01;39.55
65384;BME280;51986;52.788;41.368;2023-08-24T09:55:58;98811.06;;;23.65;39.18
65384;BME280;51986;52.788;41.368;2023-08-24T09:58:27;98805.22;;;23.11;40.35
65384;BME280;51986;52.788;41.368;2023-08-24T10:00:55;98805.94;;;23.28;39.71
65384;BME280;51986;52.788;41.368;2023-08-24T10:03:26;98802.47;;;22.82;41.10
65384;BME280;51986;52.788;41.368;2023-08-24T10:05:56;98813.03;;;23.14;40.55
65384;BME280;51986;52.788;41.368;2023-08-24T10:08:36;98834.47;;;22.69;41.31
65384;BME280;51986;52.788;41.368;2023-08-24T10:11:03;98811.59;;;23.13;39.97
65384;BME280;51986;52.788;41.368;2023-08-24T10:13:39;98793.69;;;23.49;38.91
65384;BME280;51986;52.788;41.368;2023-08-24T10:16:08;98801.28;;;23.40;40.42
65384;BME280;51986;52.788;41.368;2023-08-24T10:18:37;98803.00;;;23.43;40.07
65384;BME280;51986;52.788;41.368;2023-08-24T10:21:04;98780.97;;;23.22;38.27
65384;BME280;51986;52.788;41.368;2023-08-24T10:23:34;98823.28;;;23.55;38.60
65384;BME280;51986;52.788;41.368;2023-08-24T10:26:06;98804.22;;;23.47;39.39
65384;BME280;51986;52.788;41.368;2023-08-24T10:28:35;98820.78;;;23.96;39.12
65384;BME280;51986;52.788;41.368;2023-08-24T10:31:03;98815.22;;;23.49;40.06
65384;BME280;51986;52.788;41.368;2023-08-24T10:33:32;98800.09;;;23.13;41.00
65384;BME280;51986;52.788;41.368;2023-08-24T10:35:59;98841.66;;;23.56;39.76
65384;BME280;51986;52.788;41.368;2023-08-24T10:38:28;98810.34;;;23.48;39.81
65384;BME280;51986;52.788;41.368;2023-08-24T10:41:03;98820.88;;;23.57;39.61
65384;BME280;51986;52.788;41.368;2023-08-24T10:43:35;98825.53;;;23.28;40.74
65384;BME280;51986;52.788;41.368;2023-08-24T10:46:02;98814.97;;;23.36;40.22
65384;BME280;51986;52.788;41.368;2023-08-24T10:48:36;98811.31;;;23.56;40.45
65384;BME280;51986;52.788;41.368;2023-08-24T10:51:18;98797.31;;;23.86;40.40
65384;BME280;51986;52.788;41.368;2023-08-24T10:53:53;98798.03;;;23.86;39.79
65384;BME280;51986;52.788;41.368;2023-08-24T10:56:21;98789.72;;;23.90;39.52
65384;BME280;51986;52.788;41.368;2023-08-24T10:59:17;98791.97;;;24.38;38.85
65384;BME280;51986;52.788;41.368;2023-08-24T11:01:55;98809.22;;;24.07;39.75
65384;BME280;51986;52.788;41.368;2023-08-24T11:04:22;98789.22;;;23.91;40.03
65384;BME280;51986;52.788;41.368;2023-08-24T11:06:56;98795.94;;;24.26;38.80
65384;BME280;51986;52.788;41.368;2023-08-24T11:09:24;98775.22;;;24.04;38.23
65384;BME280;51986;52.788;41.368;2023-08-24T11:12:02;98811.53;;;23.80;39.40
65384;BME280;51986;52.788;41.368;2023-08-24T11:14:30;98792.50;;;23.33;40.48
65384;BME280;51986;52.788;41.368;2023-08-24T11:17:05;98805.94;;;22.89;42.42
65384;BME280;51986;52.788;41.368;2023-08-24T11:19:49;98821.34;;;23.05;41.28
65384;BME280;51986;52.788;41.368;2023-08-24T11:22:19;98805.69;;;22.98;41.45
65384;BME280;51986;52.788;41.368;2023-08-24T11:24:47;98804.25;;;23.19;41.43
65384;BME280;51986;52.788;41.368;2023-08-24T11:27:14;98803.75;;;23.38;41.00
65384;BME280;51986;52.788;41.368;2023-08-24T11:29:41;98795.88;;;23.73;40.93
65384;BME280;51986;52.788;41.368;2023-08-24T11:32:08;98788.31;;;23.38;42.84
65384;BME280;51986;52.788;41.368;2023-08-24T11:34:35;98798.34;;;23.38;43.80
65384;BME280;51986;52.788;41.368;2023-08-24T11:37:02;98786.13;;;23.42;42.98
65384;BME280;51986;52.788;41.368;2023-08-24T11:39:29;98795.41;;;23.07;42.75
65384;BME280;51986;52.788;41.368;2023-08-24T11:42:03;98776.09;;;23.43;42.04
65384;BME280;51986;52.788;41.368;2023-08-24T11:44:48;98803.50;;;23.30;40.99
65384;BME280;51986;52.788;41.368;2023-08-24T11:47:15;98790.50;;;23.62;41.23
65384;BME280;51986;52.788;41.368;2023-08-24T11:49:43;98786.56;;;23.74;39.89
65384;BME280;51986;52.788;41.368;2023-08-24T11:52:10;98760.16;;;23.45;40.86
65384;BME280;51986;52.788;41.368;2023-08-24T11:54:37;98772.13;;;23.72;40.33
65384;BME280;51986;52.788;41.368;2023-08-24T11:57:08;98774.56;;;23.81;40.77
65384;BME280;51986;52.788;41.368;2023-08-24T11:59:36;98777.72;;;23.85;40.03
65384;BME280;51986;52.788;41.368;2023-08-24T12:02:04;98800.78;;;23.41;41.35
65384;BME280;51986;52.788;41.368;2023-08-24T12:04:41;98794.69;;;23.46;41.92
65384;BME280;51986;52.788;41.368;2023-08-24T12:07:14;98790.78;;;22.91;43.82
65384;BME280;51986;52.788;41.368;2023-08-24T12:09:41;98809.81;;;22.82;43.51
65384;BME280;51986;52.788;41.368;2023-08-24T12:12:16;98807.59;;;22.80;43.29
65384;BME280;51986;52.788;41.368;2023-08-24T12:14:44;98813.13;;;22.43;44.16
65384;BME280;51986;52.788;41.368;2023-08-24T12:17:12;98809.25;;;22.50;43.88
65384;BME280;51986;52.788;41.368;2023-08-24T12:19:57;98808.25;;;22.36;44.26
65384;BME280;51986;52.788;41.368;2023-08-24T12:22:24;98817.75;;;22.32;45.19
65384;BME280;51986;52.788;41.368;2023-08-24T12:24:51;98827.84;;;22.05;45.71
65384;BME280;51986;52.788;41.368;2023-08-24T12:27:22;98801.72;;;22.05;46.42
65384;BME280;51986;52.788;41.368;2023-08-24T12:29:50;98813.72;;;21.67;47.48
65384;BME280;51986;52.788;41.368;2023-08-24T12:32:18;98825.53;;;21.44;47.90
65384;BME280;51986;52.788;41.368;2023-08-24T12:34:48;98821.66;;;21.19;48.78
65384;BME280;51986;52.788;41.368;2023-08-24T12:37:15;98850.38;;;21.39;48.43
65384;BME280;51986;52.788;41.368;2023-08-24T12:39:42;98796.00;;;21.12;48.58
65384;BME280;51986;52.788;41.368;2023-08-24T12:42:09;98820.88;;;21.13;48.58
65384;BME280;51986;52.788;41.368;2023-08-24T12:44:36;98824.09;;;21.17;48.88
65384;BME280;51986;52.788;41.368;2023-08-24T12:47:03;98828.81;;;21.01;49.30
65384;BME280;51986;52.788;41.368;2023-08-24T12:49:30;98831.31;;;21.11;49.89
65384;BME280;51986;52.788;41.368;2023-08-24T12:51:57;98840.06;;;21.06;49.60
65384;BME280;51986;52.788;41.368;2023-08-24T12:54:24;98826.53;;;21.20;49.88
65384;BME280;51986;52.788;41.368;2023-08-24T12:56:52;98828.72;;;20.90;50.85
65384;BME280;51986;52.788;41.368;2023-08-24T12:59:19;98846.34;;;20.56;52.23